createdAt,value
2023-04-03T00:01:23.196Z,99678.47
2023-04-03T00:03:51.027Z,99682.34
2023-04-03T00:06:18.932Z,99686.94
2023-04-03T00:08:46.023Z,99685.88
2023-04-03T00:11:13.553Z,99682.69
2023-04-03T00:13:40.984Z,99681.19
2023-04-03T00:16:11.106Z,99684.84
2023-04-03T00:18:40.360Z,99681.03
2023-04-03T00:21:10.508Z,99686.63
2023-04-03T00:23:37.841Z,99679.63
2023-04-03T00:26:05.585Z,99681.28
2023-04-03T00:28:32.605Z,99682.16
2023-04-03T00:31:00.669Z,99689.91
2023-04-03T00:33:31.753Z,99689.91
2023-04-03T00:35:59.112Z,99697.69
2023-04-03T00:38:26.363Z,99701.16
2023-04-03T00:40:53.712Z,99694.56
2023-04-03T00:43:27.446Z,99699.63
2023-04-03T00:45:58.679Z,99695.66
2023-04-03T00:48:28.244Z,99695.63
2023-04-03T00:50:56.431Z,99701.84
2023-04-03T00:53:36.385Z,99703.50
2023-04-03T00:56:11.482Z,99708.16
2023-04-03T00:59:06.527Z,99705.84
2023-04-03T01:01:35.278Z,99706.88
2023-04-03T01:04:06.870Z,99713.91
2023-04-03T01:06:38.510Z,99712.03
2023-04-03T01:09:08.675Z,99712.03
2023-04-03T01:11:36.034Z,99711.06
2023-04-03T01:14:04.141Z,99722.03
2023-04-03T01:16:32.807Z,99721.91
2023-04-03T01:19:02.419Z,99715.47
2023-04-03T01:21:51.752Z,99723.06
2023-04-03T01:24:39.842Z,99728.09
2023-04-03T01:27:11.499Z,99726.16
2023-04-03T01:29:41.067Z,99734.72
2023-04-03T01:32:08.944Z,99737.19
2023-04-03T01:34:36.247Z,99737.31
2023-04-03T01:37:03.875Z,99740.28
2023-04-03T01:39:31.086Z,99739.50
2023-04-03T01:42:00.204Z,99744.78
2023-04-03T01:44:31.663Z,99741.09
2023-04-03T01:46:59.109Z,99747.41
2023-04-03T01:49:29.465Z,99743.41
2023-04-03T01:51:57.796Z,99742.72
2023-04-03T01:54:25.098Z,99740.06
2023-04-03T01:56:53.302Z,99746.38
2023-04-03T01:59:21.652Z,99735.63
2023-04-03T02:01:49.159Z,99743.22
2023-04-03T02:04:16.463Z,99743.38
2023-04-03T02:06:43.916Z,99748.00
2023-04-03T02:09:11.002Z,99750.31
2023-04-03T02:11:38.734Z,99750.97
2023-04-03T02:14:06.022Z,99751.28
2023-04-03T02:16:33.571Z,99754.94
2023-04-03T02:19:00.720Z,99758.56
2023-04-03T02:21:28.886Z,99749.66
2023-04-03T02:23:56.030Z,99755.28
2023-04-03T02:26:24.767Z,99752.66
2023-04-03T02:28:51.902Z,99758.97
2023-04-03T02:31:19.640Z,99757.31
2023-04-03T02:33:48.024Z,99757.66
2023-04-03T02:36:17.393Z,99755.50
2023-04-03T02:38:49.920Z,99758.31
2023-04-03T02:41:17.842Z,99759.97
2023-04-03T02:43:44.918Z,99755.66
2023-04-03T02:46:12.373Z,99764.25
2023-04-03T02:48:39.498Z,99762.59
2023-04-03T02:51:07.383Z,99758.97
2023-04-03T02:53:34.520Z,99765.91
2023-04-03T02:56:08.483Z,99763.75
2023-04-03T02:58:36.483Z,99767.41
2023-04-03T03:01:08.402Z,99771.00
2023-04-03T03:03:35.702Z,99775.31
2023-04-03T03:06:10.308Z,99773.19
2023-04-03T03:08:38.530Z,99782.91
2023-04-03T03:11:06.376Z,99776.19
2023-04-03T03:13:35.304Z,99786.72
2023-04-03T03:16:03.633Z,99784.75
2023-04-03T03:18:31.481Z,99795.00
2023-04-03T03:21:01.563Z,99777.16
2023-04-03T03:23:31.916Z,99774.53
2023-04-03T03:26:04.562Z,99783.75
2023-04-03T03:28:33.398Z,99779.81
2023-04-03T03:31:01.590Z,99782.09
2023-04-03T03:33:30.672Z,99783.56
2023-04-03T03:35:58.244Z,99784.59
2023-04-03T03:38:25.842Z,99778.47
2023-04-03T03:40:54.048Z,99787.03
2023-04-03T03:43:22.540Z,99782.59
2023-04-03T03:45:53.790Z,99792.31
2023-04-03T03:48:23.376Z,99794.31
2023-04-03T03:50:51.245Z,99796.44
2023-04-03T03:53:20.689Z,99793.34
2023-04-03T03:55:50.328Z,99795.66
2023-04-03T03:58:18.002Z,99800.75
2023-04-03T04:00:46.055Z,99802.56
2023-04-03T04:03:13.159Z,99800.94
2023-04-03T04:05:41.321Z,99798.94
2023-04-03T04:08:08.781Z,99796.31
2023-04-03T04:10:38.735Z,99804.56
2023-04-03T04:13:07.093Z,99806.69
2023-04-03T04:15:35.706Z,99800.09
2023-04-03T04:18:03.710Z,99817.94
2023-04-03T04:20:33.234Z,99814.63
2023-04-03T04:23:00.544Z,99810.19
2023-04-03T04:25:29.749Z,99822.69
2023-04-03T04:27:56.883Z,99830.28
2023-04-03T04:30:24.308Z,99837.22
2023-04-03T04:32:52.086Z,99842.50
2023-04-03T04:35:19.526Z,99837.50
2023-04-03T04:37:49.506Z,99847.50
2023-04-03T04:40:17.586Z,99846.72
2023-04-03T04:42:45.327Z,99832.22
2023-04-03T04:45:13.156Z,99837.19
2023-04-03T04:47:42.898Z,99836.47
2023-04-03T04:50:12.348Z,99837.34
2023-04-03T04:52:40.023Z,99839.44
2023-04-03T04:55:09.339Z,99838.16
2023-04-03T04:57:38.012Z,99842.28
2023-04-03T05:00:06.760Z,99851.69
2023-04-03T05:02:34.169Z,99848.88
2023-04-03T05:05:05.839Z,99848.06
2023-04-03T05:07:34.527Z,99846.75
2023-04-03T05:10:04.513Z,99850.25
2023-04-03T05:12:33.423Z,99850.75
2023-04-03T05:15:04.377Z,99857.03
2023-04-03T05:17:32.756Z,99850.44
2023-04-03T05:20:00.789Z,99856.38
2023-04-03T05:22:29.531Z,99853.59
2023-04-03T05:25:02.507Z,99857.72
2023-04-03T05:27:30.584Z,99869.91
2023-04-03T05:30:00.620Z,99869.91
2023-04-03T05:32:28.602Z,99876.19
2023-04-03T05:35:14.693Z,99878.75
2023-04-03T05:37:43.227Z,99873.31
2023-04-03T05:40:11.978Z,99870.19
2023-04-03T05:42:42.678Z,99873.19
2023-04-03T05:45:10.773Z,99880.78
2023-04-03T05:47:37.932Z,99881.06
2023-04-03T05:50:08.910Z,99891.91
2023-04-03T05:52:46.548Z,99890.81
2023-04-03T05:55:14.793Z,99888.94
2023-04-03T05:57:42.159Z,99894.47
2023-04-03T06:00:15.369Z,99895.38
2023-04-03T06:02:44.296Z,99897.22
2023-04-03T06:05:18.389Z,99902.91
2023-04-03T06:07:47.017Z,99909.16
2023-04-03T06:10:14.456Z,99912.53
2023-04-03T06:12:42.869Z,99910.25
2023-04-03T06:15:11.218Z,99911.97
2023-04-03T06:17:40.770Z,99916.81
2023-04-03T06:20:10.535Z,99919.59
2023-04-03T06:22:37.818Z,99919.09
2023-04-03T06:25:07.159Z,99929.50
2023-04-03T06:27:34.679Z,99924.31
2023-04-03T06:30:01.984Z,99922.38
2023-04-03T06:32:29.294Z,99927.72
2023-04-03T06:34:58.105Z,99924.69
2023-04-03T06:37:27.007Z,99922.72
2023-04-03T06:39:54.367Z,99934.78
2023-04-03T06:42:22.256Z,99931.72
2023-04-03T06:44:58.982Z,99936.94
2023-04-03T06:47:26.161Z,99936.59
2023-04-03T06:49:53.661Z,99938.94
2023-04-03T06:52:21.628Z,99938.16
2023-04-03T06:54:48.988Z,99948.66
2023-04-03T06:57:16.228Z,99947.19
2023-04-03T06:59:43.668Z,99944.38
2023-04-03T07:02:13.602Z,99951.03
2023-04-03T07:04:41.339Z,99946.25
2023-04-03T07:07:08.533Z,99958.22
2023-04-03T07:09:35.958Z,99958.66
2023-04-03T07:12:03.397Z,99960.00
2023-04-03T07:14:30.947Z,99962.91
2023-04-03T07:16:58.188Z,99964.72
2023-04-03T07:19:28.233Z,99967.13
2023-04-03T07:21:56.008Z,99968.75
2023-04-03T07:24:24.026Z,99965.47
2023-04-03T07:26:53.537Z,99957.00
2023-04-03T07:29:22.354Z,99967.91
2023-04-03T07:31:50.341Z,99978.59
2023-04-03T07:34:17.698Z,99984.09
2023-04-03T07:36:44.752Z,99979.78
2023-04-03T07:39:12.218Z,99983.66
2023-04-03T07:41:39.476Z,99988.94
2023-04-03T07:44:06.970Z,99981.69
2023-04-03T07:46:34.054Z,99983.72
2023-04-03T07:49:01.468Z,99976.91
2023-04-03T07:51:30.540Z,99989.06
2023-04-03T07:53:57.872Z,99985.50
2023-04-03T07:56:26.029Z,99986.88
2023-04-03T07:58:54.552Z,99980.59
2023-04-03T08:01:21.893Z,99980.59
2023-04-03T08:03:49.477Z,99970.84
2023-04-03T08:06:18.520Z,99978.59
2023-04-03T08:08:48.179Z,99969.66
2023-04-03T08:11:15.444Z,99974.28
2023-04-03T08:13:43.796Z,99977.22
2023-04-03T08:16:18.625Z,99982.44
2023-04-03T08:18:46.182Z,99981.56
2023-04-03T08:21:14.235Z,99970.59
2023-04-03T08:23:42.670Z,99977.34
2023-04-03T08:26:22.534Z,99987.56
2023-04-03T08:28:50.627Z,99969.53
2023-04-03T08:31:20.883Z,99967.38
2023-04-03T08:33:50.042Z,99976.56
2023-04-03T08:36:29.888Z,99982.78
2023-04-03T08:38:58.521Z,99985.06
2023-04-03T08:41:40.620Z,99985.53
2023-04-03T08:44:26.800Z,99984.00
2023-04-03T08:47:26.276Z,99996.06
2023-04-03T08:50:14.722Z,100005.00
2023-04-03T08:52:56.961Z,99998.28
2023-04-03T08:55:34.225Z,100010.31
2023-04-03T08:58:29.140Z,100012.91
2023-04-03T09:01:06.825Z,100015.47
2023-04-03T09:03:41.792Z,100014.50
2023-04-03T09:06:31.457Z,100006.31
2023-04-03T09:09:23.144Z,100007.88
2023-04-03T09:12:21.746Z,100020.81
2023-04-03T09:15:14.330Z,100021.81
2023-04-03T09:18:06.575Z,100016.44
2023-04-03T09:20:43.055Z,100015.91
2023-04-03T09:23:28.649Z,100016.13
2023-04-03T09:26:10.075Z,100029.53
2023-04-03T09:28:49.363Z,100028.69
2023-04-03T09:31:23.999Z,100031.03
2023-04-03T09:33:58.718Z,100037.38
2023-04-03T09:36:45.599Z,100042.00
2023-04-03T09:39:23.352Z,100046.16
2023-04-03T09:41:59.336Z,100047.94
2023-04-03T09:44:37.760Z,100043.84
2023-04-03T09:47:37.124Z,100052.72
2023-04-03T09:50:16.562Z,100055.53
2023-04-03T09:52:47.925Z,100050.81
2023-04-03T09:55:44.684Z,100058.81
2023-04-03T09:58:50.560Z,100072.81
2023-04-03T10:01:40.154Z,100074.16
2023-04-03T10:04:14.601Z,100075.47
2023-04-03T10:06:50.809Z,100078.75
2023-04-03T10:09:25.581Z,100080.78
2023-04-03T10:12:08.063Z,100079.44
2023-04-03T10:14:39.412Z,100081.41
2023-04-03T10:17:46.450Z,100080.09
2023-04-03T10:20:34.935Z,100090.84
2023-04-03T10:23:48.848Z,100090.00
2023-04-03T10:26:46.756Z,100097.22
2023-04-03T10:29:41.926Z,100096.88
2023-04-03T10:32:31.399Z,100093.19
2023-04-03T10:35:36.176Z,100098.22
2023-04-03T10:38:30.172Z,100092.00
2023-04-03T10:41:35.356Z,100095.63
2023-04-03T10:44:37.297Z,100095.88
2023-04-03T10:47:39.617Z,100097.34
2023-04-03T10:50:27.602Z,100106.16
2023-04-03T10:53:45.760Z,100103.16
2023-04-03T10:56:40.419Z,100103.56
2023-04-03T11:00:00.474Z,100102.28
2023-04-03T11:02:42.020Z,100092.97
2023-04-03T11:05:30.857Z,100092.66
2023-04-03T11:08:05.860Z,100085.06
2023-04-03T11:10:52.921Z,100085.38
2023-04-03T11:13:50.799Z,100095.63
2023-04-03T11:16:27.252Z,100092.00
2023-04-03T11:19:14.526Z,100094.16
2023-04-03T11:21:58.087Z,100090.19
2023-04-03T11:24:34.085Z,100082.75
2023-04-03T11:27:06.238Z,100087.03
2023-04-03T11:29:41.450Z,100090.34
2023-04-03T11:32:51.773Z,100088.69
2023-04-03T11:35:20.983Z,100091.34
2023-04-03T11:37:53.960Z,100085.03
2023-04-03T11:40:27.776Z,100089.69
2023-04-03T11:43:07.411Z,100091.69
2023-04-03T11:45:51.915Z,100095.94
2023-04-03T11:48:24.998Z,100098.22
2023-04-03T11:50:53.306Z,100086.63
2023-04-03T11:53:36.974Z,100092.81
2023-04-03T11:56:31.255Z,100084.31
2023-04-03T11:59:14.472Z,100083.22
2023-04-03T12:01:54.268Z,100085.53
2023-04-03T12:04:26.588Z,100086.69
2023-04-03T12:07:23.228Z,100092.66
2023-04-03T12:09:50.717Z,100088.31
2023-04-03T12:12:41.651Z,100080.41
2023-04-03T12:15:52.241Z,100083.41
2023-04-03T12:18:44.951Z,100077.28
2023-04-03T12:21:14.788Z,100067.22
2023-04-03T12:24:10.001Z,100065.50
2023-04-03T12:27:05.876Z,100065.66
2023-04-03T12:29:43.998Z,100062.19
2023-04-03T12:32:52.114Z,100066.06
2023-04-03T12:35:32.468Z,100056.75
2023-04-03T12:38:41.648Z,100061.66
2023-04-03T12:41:31.574Z,100057.41
2023-04-03T12:44:33.115Z,100057.75
2023-04-03T12:47:10.861Z,100060.41
2023-04-03T12:49:43.762Z,100057.94
2023-04-03T12:52:37.374Z,100053.66
2023-04-03T12:55:16.341Z,100055.00
2023-04-03T12:57:43.834Z,100051.94
2023-04-03T13:00:36.382Z,100069.78
2023-04-03T13:03:06.645Z,100060.50
2023-04-03T13:05:37.152Z,100056.84
2023-04-03T13:08:11.277Z,100061.50
2023-04-03T13:10:59.035Z,100051.31
2023-04-03T13:13:27.366Z,100058.56
2023-04-03T13:15:56.026Z,100049.09
2023-04-03T13:18:33.369Z,100052.13
2023-04-03T13:21:14.537Z,100046.91
2023-04-03T13:23:50.198Z,100038.91
2023-04-03T13:26:22.806Z,100038.41
2023-04-03T13:28:52.550Z,100041.84
2023-04-03T13:31:31.174Z,100033.19
2023-04-03T13:34:12.946Z,100042.56
2023-04-03T13:37:08.869Z,100040.31
2023-04-03T13:39:40.726Z,100041.84
2023-04-03T13:42:30.634Z,100042.69
2023-04-03T13:45:25.107Z,100048.44
2023-04-03T13:47:56.040Z,100045.59
2023-04-03T13:50:26.819Z,100050.81
2023-04-03T13:53:03.765Z,100041.97
2023-04-03T13:55:52.665Z,100038.03
2023-04-03T13:58:32.798Z,100041.19
2023-04-03T14:01:14.968Z,100033.72
2023-04-03T14:04:00.733Z,100033.28
2023-04-03T14:06:28.339Z,100029.00
2023-04-03T14:08:55.805Z,100032.19
2023-04-03T14:11:31.118Z,100032.88
2023-04-03T14:14:06.832Z,100035.06
2023-04-03T14:16:41.910Z,100031.97
2023-04-03T14:19:28.618Z,100031.47
2023-04-03T14:21:57.825Z,100032.56
2023-04-03T14:24:26.047Z,100042.88
2023-04-03T14:26:56.256Z,100028.25
2023-04-03T14:29:24.270Z,100030.00
2023-04-03T14:32:00.392Z,100029.75
2023-04-03T14:34:35.213Z,100043.13
2023-04-03T14:37:02.388Z,100023.38
2023-04-03T14:39:31.126Z,100030.78
2023-04-03T14:41:58.273Z,100032.03
2023-04-03T14:44:25.646Z,100029.84
2023-04-03T14:46:56.814Z,100031.38
2023-04-03T14:49:30.288Z,100033.38
2023-04-03T14:51:59.360Z,100033.41
2023-04-03T14:54:28.968Z,100027.41
2023-04-03T14:57:00.470Z,100030.34
2023-04-03T14:59:29.809Z,100028.16
2023-04-03T15:01:56.919Z,100029.63
2023-04-03T15:04:24.642Z,100033.38
2023-04-03T15:06:53.887Z,100033.09
2023-04-03T15:09:27.997Z,100032.34
2023-04-03T15:11:56.289Z,100030.88
2023-04-03T15:14:35.693Z,100031.75
2023-04-03T15:17:07.096Z,100035.78
2023-04-03T15:19:39.602Z,100029.34
2023-04-03T15:22:07.636Z,100030.56
2023-04-03T15:24:34.959Z,100024.41
2023-04-03T15:27:03.697Z,100026.09
2023-04-03T15:29:31.183Z,100026.53
2023-04-03T15:31:58.430Z,100024.47
2023-04-03T15:34:26.083Z,100030.47
2023-04-03T15:36:56.142Z,100025.91
2023-04-03T15:39:25.072Z,100029.28
2023-04-03T15:41:55.891Z,100030.16
2023-04-03T15:44:23.321Z,100019.25
2023-04-03T15:46:52.197Z,100034.63
2023-04-03T15:49:23.024Z,100035.69
2023-04-03T15:51:50.206Z,100035.81
2023-04-03T15:54:18.317Z,100028.97
2023-04-03T15:56:46.199Z,100028.44
2023-04-03T15:59:13.561Z,100032.59
2023-04-03T16:01:41.446Z,100036.63
2023-04-03T16:04:10.673Z,100033.25
2023-04-03T16:06:39.098Z,100031.28
2023-04-03T16:09:08.426Z,100033.47
2023-04-03T16:11:36.901Z,100031.97
2023-04-03T16:14:04.270Z,100037.31
2023-04-03T16:16:31.616Z,100033.81
2023-04-03T16:18:59.173Z,100035.47
2023-04-03T16:21:28.021Z,100039.09
2023-04-03T16:23:59.491Z,100035.13
2023-04-03T16:26:27.922Z,100041.22
2023-04-03T16:28:55.654Z,100046.03
2023-04-03T16:31:25.325Z,100044.56
2023-04-03T16:33:53.279Z,100036.78
2023-04-03T16:36:20.589Z,100033.47
2023-04-03T16:38:48.303Z,100039.94
2023-04-03T16:41:15.423Z,100041.41
2023-04-03T16:46:15.158Z,100040.75
2023-04-03T16:48:42.531Z,100038.44
2023-04-03T16:51:09.855Z,100034.78
2023-04-03T16:53:38.550Z,100045.06
2023-04-03T16:56:06.001Z,100050.03
2023-04-03T16:58:33.671Z,100046.38
2023-04-03T17:01:18.227Z,100051.31
2023-04-03T17:03:46.488Z,100049.53
2023-04-03T17:06:40.760Z,100056.31
2023-04-03T17:09:10.274Z,100055.81
2023-04-03T17:11:37.516Z,100050.00
2023-04-03T17:14:05.618Z,100060.19
2023-04-03T17:16:36.278Z,100059.13
2023-04-03T17:19:04.755Z,100063.44
2023-04-03T17:21:34.247Z,100067.13
2023-04-03T17:24:09.245Z,100072.41
2023-04-03T17:26:39.489Z,100069.97
2023-04-03T17:29:07.265Z,100070.13
2023-04-03T17:31:35.239Z,100075.44
2023-04-03T17:34:07.856Z,100078.25
2023-04-03T17:36:35.295Z,100067.75
2023-04-03T17:39:05.332Z,100078.28
2023-04-03T17:41:32.725Z,100073.41
2023-04-03T17:44:00.368Z,100080.38
2023-04-03T17:46:30.234Z,100082.38
2023-04-03T17:49:03.420Z,100079.00
2023-04-03T17:51:34.366Z,100081.03
2023-04-03T17:54:02.639Z,100090.41
2023-04-03T17:56:29.828Z,100082.00
2023-04-03T17:58:58.490Z,100087.25
2023-04-03T18:01:31.332Z,100092.56
2023-04-03T18:04:04.644Z,100090.59
2023-04-03T18:06:43.033Z,100095.03
2023-04-03T18:09:27.012Z,100093.53
2023-04-03T18:11:57.850Z,100096.34
2023-04-03T18:14:27.949Z,100093.53
2023-04-03T18:16:59.305Z,100091.25
2023-04-03T18:19:29.741Z,100098.81
2023-04-03T18:22:02.478Z,100102.44
2023-04-03T18:24:34.273Z,100106.75
2023-04-03T18:27:09.104Z,100104.09
2023-04-03T18:29:40.405Z,100107.72
2023-04-03T18:32:11.729Z,100106.88
2023-04-03T18:34:39.426Z,100111.69
2023-04-03T18:37:06.841Z,100114.31
2023-04-03T18:39:34.580Z,100115.63
2023-04-03T18:42:28.525Z,100115.94
2023-04-03T18:45:04.822Z,100107.69
2023-04-03T18:47:32.880Z,100107.69
2023-04-03T18:50:00.497Z,100106.00
2023-04-03T18:52:28.508Z,100109.63
2023-04-03T18:54:56.835Z,100109.63
2023-04-03T18:57:26.432Z,100108.97
2023-04-03T18:59:53.930Z,100104.31
2023-04-03T19:02:22.806Z,100107.78
2023-04-03T19:04:53.256Z,100108.59
2023-04-03T19:07:20.960Z,100113.88
2023-04-03T19:09:48.600Z,100111.41
2023-04-03T19:12:15.806Z,100116.69
2023-04-03T19:14:43.330Z,100111.72
2023-04-03T19:17:10.578Z,100116.16
2023-04-03T19:19:38.679Z,100117.19
2023-04-03T19:22:07.722Z,100119.66
2023-04-03T19:24:35.531Z,100114.53
2023-04-03T19:27:04.180Z,100110.41
2023-04-03T19:29:31.900Z,100108.22
2023-04-03T19:31:59.212Z,100106.25
2023-04-03T19:34:26.609Z,100107.41
2023-04-03T19:36:55.320Z,100106.56
2023-04-03T19:39:23.073Z,100111.84
2023-04-03T19:41:50.777Z,100112.69
2023-04-03T19:44:18.245Z,100105.91
2023-04-03T19:46:50.997Z,100110.19
2023-04-03T19:49:20.440Z,100111.84
2023-04-03T19:51:47.556Z,100118.28
2023-04-03T19:54:14.996Z,100106.03
2023-04-03T19:56:42.193Z,100109.81
2023-04-03T19:59:09.672Z,100110.50
2023-04-03T20:01:37.613Z,100112.16
2023-04-03T20:04:06.102Z,100112.16
2023-04-03T20:06:33.380Z,100110.81
2023-04-03T20:09:03.356Z,100107.19
2023-04-03T20:11:30.519Z,100106.50
2023-04-03T20:13:57.876Z,100104.72
2023-04-03T20:16:25.967Z,100103.88
2023-04-03T20:18:57.086Z,100104.22
2023-04-03T20:21:30.532Z,100101.41
2023-04-03T20:23:59.937Z,100104.88
2023-04-03T20:26:30.074Z,100103.88
2023-04-03T20:29:03.313Z,100100.56
2023-04-03T20:31:32.759Z,100103.38
2023-04-03T20:34:01.348Z,100099.72
2023-04-03T20:36:30.863Z,100107.81
2023-04-03T20:38:58.324Z,100113.09
2023-04-03T20:41:26.230Z,100110.28
2023-04-03T20:43:53.670Z,100109.50
2023-04-03T20:46:22.602Z,100117.72
2023-04-03T20:48:49.915Z,100120.34
2023-04-03T20:51:20.033Z,100123.66
2023-04-03T20:53:48.669Z,100117.72
2023-04-03T20:56:16.676Z,100122.00
2023-04-03T20:58:46.092Z,100117.84
2023-04-03T21:01:23.789Z,100128.59
2023-04-03T21:04:00.959Z,100120.66
2023-04-03T21:07:25.661Z,100119.00
2023-04-03T21:10:50.066Z,100121.50
2023-04-03T21:14:14.208Z,100125.94
2023-04-03T21:16:41.480Z,100129.56
2023-04-03T21:19:15.925Z,100127.91
2023-04-03T21:21:45.963Z,100133.19
2023-04-03T21:24:17.214Z,100129.88
2023-04-03T21:26:45.957Z,100130.19
2023-04-03T21:29:13.886Z,100133.50
2023-04-03T21:31:59.339Z,100134.34
2023-04-03T21:34:29.827Z,100136.31
2023-04-03T21:37:04.783Z,100135.47
2023-04-03T21:39:33.009Z,100135.47
2023-04-03T21:42:00.580Z,100132.16
2023-04-03T21:44:28.654Z,100131.16
2023-04-03T21:46:56.658Z,100134.13
2023-04-03T21:49:25.684Z,100128.84
2023-04-03T21:51:53.063Z,100123.88
2023-04-03T21:54:20.661Z,100120.25
2023-04-03T21:56:49.316Z,100120.25
2023-04-03T21:59:17.031Z,100113.31
2023-04-03T22:01:44.559Z,100104.75
2023-04-03T22:04:12.736Z,100106.38
2023-04-03T22:06:40.854Z,100094.84
2023-04-03T22:09:08.081Z,100092.22
2023-04-03T22:11:35.531Z,100093.84
2023-04-03T22:14:02.733Z,100094.84
2023-04-03T22:16:30.511Z,100085.94
2023-04-03T22:18:59.686Z,100074.03
2023-04-03T22:21:27.342Z,100075.00
2023-04-03T22:23:54.632Z,100070.72
2023-04-03T22:26:22.139Z,100070.06
2023-04-03T22:28:49.482Z,100065.75
2023-04-03T22:31:17.675Z,100061.44
2023-04-03T22:33:46.109Z,100067.88
2023-04-03T22:36:14.560Z,100059.16
2023-04-03T22:38:44.780Z,100044.28
2023-04-03T22:41:12.377Z,100048.91
2023-04-03T22:43:40.288Z,100050.19
2023-04-03T22:46:10.035Z,100039.78
2023-04-03T22:48:42.324Z,100033.69
2023-04-03T22:51:09.922Z,100031.38
2023-04-03T22:53:38.343Z,100027.25
2023-04-03T22:56:11.076Z,100024.44
2023-04-03T22:58:38.915Z,100030.53
2023-04-03T23:01:12.400Z,100017.50
2023-04-03T23:03:42.674Z,100017.50
2023-04-03T23:06:10.961Z,99995.88
2023-04-03T23:08:38.971Z,100010.03
2023-04-03T23:11:07.448Z,100009.47
2023-04-03T23:13:34.734Z,100012.78
2023-04-03T23:16:04.323Z,99997.53
2023-04-03T23:18:32.738Z,99995.28
2023-04-03T23:21:04.473Z,99997.53
2023-04-03T23:23:32.847Z,99995.56
2023-04-03T23:26:02.532Z,99989.31
2023-04-03T23:28:30.411Z,99994.06
2023-04-03T23:31:03.895Z,99995.56
2023-04-03T23:33:32.523Z,99992.88
2023-04-03T23:36:06.567Z,99992.88
2023-04-03T23:38:34.768Z,99990.81
2023-04-03T23:41:02.210Z,99997.09
2023-04-03T23:43:29.303Z,99994.84
2023-04-03T23:45:56.639Z,99989.88
2023-04-03T23:48:23.894Z,99984.94
2023-04-03T23:50:51.258Z,99984.09
2023-04-03T23:53:18.418Z,99986.19
2023-04-03T23:55:45.825Z,99980.25
2023-04-03T23:58:13.064Z,99987.28
